Unofficial Solicitation Results

  
  
  
  
  
  
814-010-083 Phase 1Repair HVAC and Pool - Jacoby Dickens CenterElectrical- Remod & Rehab11/10/2021Posted814-010-083 Phase 1 4605
102-117-036 Phase 1Rehabilitate Sewage System & Replace Roofing SystemsGeneral- Remod & Rehab11/10/2021Posted102-117-036 Phase 1 4588
814-010-083 Phase 1Repair HVAC and Pool - Jacoby Dickens CenterGeneral- Remod & Rehab11/10/2021Posted814-010-083 Phase 1 4602
120-075-068 Phase 1Modify Sewer SystemPlumbing- Remod & Rehab11/10/2021Posted120-075-068 Phase 1 4340
120-245-075 Phase 1Upgrade Sewer Treatment FacilityGeneral- Remod & Rehab11/10/2021Posted120-245-075 Phase 1 4589
814-010-083 Phase 1Repair HVAC and Pool - Jacoby Dickens CenterHeating & Air Conditioning- Remod & Rehab11/10/2021Posted814-010-083 Phase 1 4604
630-000-257 Phase 1Upgrade HVAC and Electrical EquipmentVentilation- Remod & Rehab11/10/2021Posted630-000-257 Phase 1 4501
321-055-140 Phase 1Replace Chiller in the Forensic Treatment ComplexElectrical- Remod & Rehab11/10/2021Posted321-055-140 Phase 1 4571
321-055-140 Phase 1Replace Chiller in the Forensic Treatment ComplexTemperature Controls (new)11/10/2021Posted321-055-140 Phase 1 4572
814-010-083 Phase 1Repair HVAC and Pool - Jacoby Dickens CenterPlumbing- Remod & Rehab11/10/2021Posted814-010-083 Phase 1 4603
250-185-004 Phase 1Replace Windows, Doors and Roofing SystemGeneral- Remod & Rehab11/10/2021Posted250-185-004 Phase 1 4592
814-010-085 Phase 1Replace Light PolesElectrical- Remod & Rehab11/10/2021Posted814-010-085 Phase 1 4475
624-060-043 Phase 1Correct Water InfiltrationGeneral- Remod & Rehab11/10/2021Posted624-060-043 Phase 1 4624
120-245-075 Phase 1Upgrade Sewer Treatment FacilityElectrical- Remod & Rehab10/27/2021Posted120-245-075 Phase 1 4591
120-245-075 Phase 1Upgrade Sewer Treatment FacilityPlumbing- Remod & Rehab10/27/2021Posted120-245-075 Phase 1 4590
120-270-041 Phase 1Replace Lock ControlsElectrical- Remod & Rehab10/27/2021Posted120-270-041 Phase 1 4478
630-000-251 Phase 1Renovate BuildingGeneral- Remod & Rehab10/27/2021Posted630-000-251 Phase 1 4536
630-000-257 Phase 1Upgrade HVAC and Electrical EquipmentElectrical- Remod & Rehab10/27/2021Posted630-000-257 Phase 1 4502
630-000-257 Phase 1Upgrade HVAC and Electrical EquipmentGeneral- Remod & Rehab10/27/2021Posted630-000-257 Phase 1 4500
825-030-071 Phase 1Replace Digester LidPlumbing- Remod & Rehab10/27/2021Revised at Request of CDB825-030-071 Phase 1 4583
825-030-072 Phase 1Improve Water Treatment Plant Sand FilterPlumbing- Remod & Rehab10/27/2021Posted825-030-072 Phase 1 4586
830-080-019 Phase 1Replace RoofGeneral- Remod & Rehab10/27/2021Posted830-080-019 Phase 1 4508
006-100-011 Phase 3Capital Building North Wing Renovation Stratton North Parking StructureGeneral- Remod & Rehab10/27/2021Posted006-100-011 Phase 3 4594
039-150-192 Phase 1Update HVAC ControlsHeating & Air Conditioning- Remod & Rehab10/13/2021Posted039-150-192 Phase 1 4582
120-135-069 Phase 1Renovate Shower RoomsGeneral- Remod & Rehab10/13/2021Posted120-135-069 Phase 1 4563
250-174-012 Phase 1Repair BoilersHeating & Air Conditioning- Remod & Rehab10/13/2021Posted250-174-012 Phase 1 4533
321-055-136 Phase 1Renovate DietaryAsbestos Work- Remod & Rehab10/13/2021Posted321-055-136 Phase 1 4577
810-062-027 Phase 1Install GeneratorsElectrical- Construction (New)10/13/2021Posted810-062-027 Phase 1 4565
120-000-068 Phase 1Provide Medical Office Space at Various Southern LocationsGeneral- Remod & Rehab9/29/2021Posted120-000-068 Phase 1 4569
250-000-022 Phase 1Renovate Building-Demolition packageGeneral- Remod & Rehab9/29/2021Posted250-000-022 Phase 1 4548
104-021-021 Phase 1Replace Mechanical and Electrical Systems, Improve Fire Safety and SecurityGeneral- Remod & Rehab9/15/2021Posted104-021-021 Phase 1 4409
120-178-010 Phase 1Install New Locking ControlsElectrical- Construction (New)9/15/2021Posted120-178-010 Phase 1 4537
104-030-013 Phase 1Upgrade HVAC System/Fountain RepairsGeneral- Remod & Rehab9/15/2021Posted104-030-013 Phase 1 4560
250-020-044 Phase 1Renovate the Bilandic BuildingGeneral- Remod & Rehab9/15/2021Posted250-020-044 Phase 1 4534
546-190-012 Phase 1Repair/Replace Vehicle Parking LotsGeneral- Remod & Rehab9/1/2021Posted546-190-012 Phase 1 4377
630-000-244 Phase 1Renovate and Expand Building/Construct Cold Storage BuildingsGeneral- Remod & Rehab9/1/2021Posted630-000-244 Phase 1 4316
291-275-006 Phase 1Upgrade Parking Lot/Site LightingElectrical- Remod & Rehab9/1/2021Posted291-275-006 Phase 1 4506
321-015-097 Phase 1Upgrade Facility Energy Management SystemTemperature Controls Remod & Rehab9/1/2021Posted321-015-097 Phase 1 4544
104-021-021 Phase 1Replace Mechanical and Electrical Systems, Improve Fire Safety and SecurityElectrical- Remod & Rehab9/1/2021Posted104-021-021 Phase 1 4412
104-021-021 Phase 1Replace Mechanical and Electrical Systems, Improve Fire Safety and SecurityHeating & Air Conditioning- Remod & Rehab9/1/2021Posted104-021-021 Phase 1 4410
104-021-021 Phase 1Replace Mechanical and Electrical Systems, Improve Fire Safety and SecurityVentilation- Remod & Rehab9/1/2021Posted104-021-021 Phase 1 4411
291-221-018 Phase 1Upgrade HVAC System & Install Generator - Training AcademyGeneral- Remod & Rehab9/1/2021Posted291-221-018 Phase 1 4545
250-000-023 Phase 1Renovate BuildingGeneral- Remod & Rehab8/18/2021Posted250-000-023 Phase 1 4473
321-087-047 Phase 1Replace Smoke and Heat DetectorsElectrical- Remod & Rehab8/18/2021Posted321-087-047 Phase 1 4230
321-210-004 Phase 1Refurbish Roofing SystemGeneral- Remod & Rehab8/18/2021Posted321-210-004 Phase 1 4507
630-000-244 Phase 1Renovate and Expand Building/Construct Cold Storage BuildingsVentilation- Remod & Rehab8/18/2021Posted630-000-244 Phase 1 4317
546-310-010 Phase 1Replace Roofing System and Renovate ExteriorGeneral- Remod & Rehab8/18/2021Posted546-310-010 Phase 1 4463
630-000-244 Phase 1Renovate and Expand Building/Construct Cold Storage BuildingsElectrical- Remod & Rehab8/18/2021Posted630-000-244 Phase 1 4315
810-036-020 Phase 1Construct Sustainability Education CenterGeneral - Construction (New)8/18/2021Posted810-036-020 Phase 1 4399
810-066-018 Phase 1Replace Access Road and Improve Loading DockGeneral- Remod & Rehab8/18/2021Posted810-066-018 Phase 1 4550
810-098-017 Phase 1Upgrade HVAC - Erickson Hall GymnasiumVentilation- Remod & Rehab8/18/2021Posted810-098-017 Phase 1 4441
104-021-022 Phase 1Replace Roofing SystemsGeneral- Remod & Rehab8/4/2021Posted104-021-022 Phase 1 4459
120-007-018 Phase 1Replace Cooling Tower & Refrigeration Equipment/Upgrade Temperature Control SystHeating & Air Conditioning- Remod & Rehab8/4/2021Posted120-007-018 Phase 1 4464
120-135-076 Phase 1Repair RoofsGeneral- Remod & Rehab8/4/2021Posted120-135-076 Phase 1 4465
546-115-036 Phase 1Repair Plumbing, Drainage, LightingGeneral- Remod & Rehab8/4/2021Posted546-115-036 Phase 1 4509
810-060-038 Phase 1Repair Structure and FoundationGeneral- Remod & Rehab8/4/2021Posted810-060-038 Phase 1 4017
546-095-016 Phase 1Replace Roofing SystemsGeneral- Remod & Rehab8/4/2021Posted546-095-016 Phase 1 4538
630-096-005 Phase 1Salt Storage Dome & Vehicle Storage BuildingGeneral- Remod & Rehab8/4/2021Posted630-096-005 Phase 1 4467
125-110-020 Phase 1Replace Roofing SystemsGeneral- Remod & Rehab8/4/2021Posted125-110-020 Phase 1 4487
039-150-191 Phase 1Repair/Resurface Roadways and SidewalksGeneral- Remod & Rehab8/4/2021Posted039-150-191 Phase 1 4540
040-010-122 Phase 1Replace Roofing SystemsGeneral- Remod & Rehab8/4/2021Posted040-010-122 Phase 1 4474
102-412-019 Phase 1Rehabilitate Batchtown Boat Access SiteGeneral- Remod & Rehab8/4/2021Posted102-412-019 Phase 1 3285
810-018-008 Phase 1Upgrade LaboratoriesVentilation- Remod & Rehab8/4/2021Posted810-018-008 Phase 1 4428
039-150-192 Phase 1Update HVAC ControlsGeneral- Remod & Rehab7/21/2021Posted039-150-192 Phase 1 4531
104-144-038 Phase 1Replace Roofing SystemsGeneral- Remod & Rehab7/21/2021Posted104-144-038 Phase 1 4342
321-135-078 Phase 1Replace Roofing System  - Elm CottageGeneral- Remod & Rehab7/21/2021Posted321-135-078 Phase 1 4517
630-096-005 Phase 1Salt Storage Dome & Vehicle Storage BuildingElectrical- Remod & Rehab7/21/2021Posted630-096-005 Phase 1 4468
810-016-005 Phase 1Replace ElevatorsGeneral - Construction (New)7/21/2021Posted810-016-005 Phase 1 4470
810-076-017 Phase 1Replace Mechanical SystemsVentilation- Remod & Rehab7/21/2021Posted810-076-017 Phase 1 4273
830-010-346 Phase 1Masonry ReconstructionGeneral- Remod & Rehab7/21/2021Posted830-010-346 Phase 1 4503
546-325-083 Phase 1Repair or Replace HVAC SystemHeating & Air Conditioning- Remod & Rehab7/21/2021Posted546-325-083 Phase 1 4520
830-010-346 Phase 1Masonry ReconstructionElectrical- Remod & Rehab7/14/2021Posted830-010-346 Phase 1 4527
830-010-346 Phase 1Masonry ReconstructionVentilation- Remod & Rehab7/14/2021Posted830-010-346 Phase 1 4526
102-615-016 Phase 1Replace Sewage Treatment PlantGeneral- Remod & Rehab7/14/2021Posted102-615-016 Phase 1 4516
125-080-004 Phase 1Replace Security Locks, Doors, Windows, Furnishing and EquipmentGeneral- Remod & Rehab7/14/2021Posted125-080-004 Phase 1 4515
250-185-004 Phase 1Replace Windows, Doors and Roofing SystemGeneral- Remod & Rehab7/14/2021Posted250-185-004 Phase 1 4528
630-397-004 Phase 1Upgrade Sanitary Sewer SystemGeneral- Remod & Rehab7/14/2021Posted630-397-004 Phase 1 4521
810-026-015 Phase 1Replace Roofing SystemGeneral- Remod & Rehab7/14/2021Posted810-026-015 Phase 1 4524
830-010-348 Phase 1Replace Roofing System and Repair MasonryGeneral- Remod & Rehab7/14/2021Posted830-010-348 Phase 1 4525
810-028-027 Phase 1Repair Roads and ConcreteGeneral- Remod & Rehab6/23/2021Posted810-028-027 Phase 1 4496
810-014-004 Phase 1Restore ExteriorGeneral- Remod & Rehab6/23/2021Posted810-014-004 Phase 1 4462
120-175-140 Phase 1Replace MSU Locking Control SystemGeneral- Remod & Rehab6/23/2021Posted120-175-140 Phase 1 4226
120-095-019 Phase 1Upgrade Touchscreens and Speakers in Housing UnitsElectrical- Remod & Rehab6/23/2021Posted120-095-019 Phase 1 4483
025-010-030 Phase 1Renovate Building Interior and ExteriorGeneral- Remod & Rehab6/23/2021Posted025-010-030 Phase 1 4498
102-221-023 Phase 1Construct Building and Addition, Convert Existing BuildingGeneral- Remod & Rehab6/23/2021Posted102-221-023 Phase 1 4343
040-010-120 Phase 1Expand CemeteryGeneral- Remod & Rehab6/9/2021Posted040-010-120 Phase 1 4170
120-135-069 Phase 1Renovate Shower RoomsGeneral- Remod & Rehab6/9/2021Posted120-135-069 Phase 1 4479
120-175-140 Phase 1Replace MSU Locking Control SystemElectrical- Remod & Rehab6/9/2021Posted120-175-140 Phase 1 4227
120-201-006 Phase 1Replace Dietary Floors and DoorsGeneral- Remod & Rehab6/9/2021Posted120-201-006 Phase 1 4484
125-080-005 Phase 1Repair/Resurface RoadwaysGeneral- Remod & Rehab6/9/2021Posted125-080-005 Phase 1 4307
125-195-003 Phase 2Replace HVAC Systems and Boiler ComponentsGeneral- Remod & Rehab6/9/2021Posted125-195-003 Phase 2 4068
250-030-018 Phase 1Upgrade Walkway Walls/Replace Parking LotGeneral- Remod & Rehab6/9/2021Posted250-030-018 Phase 1 4404
546-096-010 Phase 1Repair/Upgrade HVAC, Electrical and Plumbing SystemsHeating & Air Conditioning- Remod & Rehab6/9/2021Posted546-096-010 Phase 1 4492
546-261-007 Phase 1Replace Refueler Parking AreaGeneral- Remod & Rehab6/9/2021Posted546-261-007 Phase 1 4476
810-066-018 Phase 1Replace Access Road and Improve Loading DockGeneral- Remod & Rehab6/9/2021Posted810-066-018 Phase 1 4429
810-034-013 Phase 1Replace Duct Heaters - Liberal Arts BuildingHeating & Air Conditioning- Remod & Rehab5/26/2021Posted810-034-013 Phase 1 4471
818-010-103 Phase 2PH. 2 - Roof Replacement - Knoblauch, Simpkins/Concrete Deck- MalpassGeneral- Remod & Rehab5/26/2021Posted818-010-103 Phase 2 4391
120-201-006 Phase 1Replace Dietary Floors and DoorsPlumbing- Remod & Rehab5/26/2021Posted120-201-006 Phase 1 4485
546-325-084 Phase 1Replace Roofing SystemGeneral- Remod & Rehab5/26/2021Posted546-325-084 Phase 1 4455
830-010-346 Phase 1Masonry ReconstructionElectrical- Remod & Rehab5/26/2021Posted830-010-346 Phase 1 4439
120-201-006 Phase 1Replace Dietary Floors and DoorsElectrical- Remod & Rehab5/26/2021Posted120-201-006 Phase 1 4486
630-000-248 Phase 1Demolish Buildings/Construct BuildingsGeneral - Construction (New)5/26/2021Posted630-000-248 Phase 1 4325
546-261-007 Phase 1Replace Refueler Parking AreaElectrical- Remod & Rehab5/26/2021Posted546-261-007 Phase 1 4477
125-195-003 Phase 2Replace HVAC Systems and Boiler ComponentsVentilation- Remod & Rehab5/26/2021Posted125-195-003 Phase 2 4069
120-260-036 Phase 1Repair/Replace Dietary Electrical ServiceElectrical- Remod & Rehab5/26/2021Posted120-260-036 Phase 1 4418
125-195-003 Phase 2Replace HVAC Systems and Boiler ComponentsAsbestos Work- Remod & Rehab5/26/2021Posted125-195-003 Phase 2 4070
830-010-346 Phase 1Masonry ReconstructionVentilation- Remod & Rehab5/26/2021Posted830-010-346 Phase 1 4438
125-195-003 Phase 2Replace HVAC Systems and Boiler ComponentsElectrical- Remod & Rehab5/26/2021Posted125-195-003 Phase 2 4458
250-189-018 Phase 1Replace ChillersGeneral- Remod & Rehab5/26/2021Posted250-189-018 Phase 1 4171
040-010-120 Phase 2Restore CemetaryGeneral- Remod & Rehab5/12/2021Posted040-010-120 Phase 2 4424
104-015-013 Phase 1Repair LodgeAsbestos Work- Remod & Rehab5/12/2021Posted104-015-013 Phase 1 4382
104-015-013 Phase 1Repair LodgeElectrical- Remod & Rehab5/12/2021Posted104-015-013 Phase 1 4379
104-015-013 Phase 1Repair LodgeGeneral- Remod & Rehab5/12/2021Posted104-015-013 Phase 1 4378
104-015-013 Phase 1Repair LodgeHeating & Air Conditioning- Remod & Rehab5/12/2021Posted104-015-013 Phase 1 4381
104-015-013 Phase 1Repair LodgeVentilation- Remod & Rehab5/12/2021Posted104-015-013 Phase 1 4380
120-007-017 Phase 1Replace Fire Alarm and Lock ControlsElectrical- Remod & Rehab5/12/2021Posted120-007-017 Phase 1 4390
321-087-049 Phase 1Repair Slope FailureGeneral- Remod & Rehab5/12/2021Posted321-087-049 Phase 1 4228
321-135-076 Phase 1Replace Roofing SystemsGeneral- Remod & Rehab5/12/2021Posted321-135-076 Phase 1 4369
546-303-008 Phase 1Replace Roofing System and Renovate ExteriorGeneral- Remod & Rehab5/12/2021Posted546-303-008 Phase 1 4364
810-080-019 Phase 1Repair Stairway and SidewalkGeneral- Remod & Rehab5/12/2021Posted810-080-019 Phase 1 4313
810-070-018 Phase 1Renovate Building EGeneral- Remod & Rehab5/12/2021Posted810-070-018 Phase 1 4360
104-031-008 Phase 1Replace Roofing SystemsGeneral- Remod & Rehab4/28/2021Posted104-031-008 Phase 1 4330
104-030-013 Phase 1Upgrade HVAC System/Fountain RepairsGeneral- Remod & Rehab4/28/2021Posted104-030-013 Phase 1 3963
120-135-073 Phase 1Construct Walk-In Freezer and Install New Chiller - DietaryGeneral- Remod & Rehab4/28/2021Posted120-135-073 Phase 1 4329
321-055-136 Phase 1Renovate DietaryGeneral- Remod & Rehab4/28/2021Posted321-055-136 Phase 1 4443
321-110-068 Phase 1Replace Water Main PipingGeneral- Remod & Rehab4/28/2021Posted321-110-068 Phase 1 4322
321-110-068 Phase 1Replace Water Main PipingPlumbing- Remod & Rehab4/28/2021Posted321-110-068 Phase 1 4321
321-190-051 Phase 1Install Emergency Address SystemGeneral- Remod & Rehab4/28/2021Posted321-190-051 Phase 1 4466
546-261-008 Phase 1Replace Roofing SystemsGeneral- Remod & Rehab4/28/2021Posted546-261-008 Phase 1 4328
750-020-016 Phase 1Replace Roofing System - South and Center WingsGeneral- Remod & Rehab4/28/2021Posted750-020-016 Phase 1 4430
810-070-018 Phase 1Renovate Building EElectrical- Remod & Rehab4/28/2021Posted810-070-018 Phase 1 4449
810-070-018 Phase 1Renovate Building EPlumbing- Remod & Rehab4/28/2021Posted810-070-018 Phase 1 4448
810-070-018 Phase 1Renovate Building EVentilation- Remod & Rehab4/28/2021Posted810-070-018 Phase 1 4450
810-080-019 Phase 1Repair Stairway and SidewalkElectrical- Remod & Rehab4/28/2021Posted810-080-019 Phase 1 4314
039-150-192 Phase 1Update HVAC ControlsGeneral- Remod & Rehab4/14/2021Posted039-150-192 Phase 1 4395
039-150-192 Phase 1Update HVAC ControlsTemperature Controls Remod & Rehab4/14/2021Posted039-150-192 Phase 1 4394
102-311-096 Phase 1Replace Beach ConcessionElectrical- Construction (New)4/14/2021Posted102-311-096 Phase 1 4461
321-055-136 Phase 1Renovate DietaryTemperature Controls Remod & Rehab4/14/2021Posted321-055-136 Phase 1 4435
321-135-077 Phase 1Replace Boiler House Emergency GeneratorElectrical- Remod & Rehab4/14/2021Posted321-135-077 Phase 1 4370
546-350-010 Phase 1Replace Roofing SystemGeneral- Remod & Rehab4/14/2021Posted546-350-010 Phase 1 4406
830-030-162 Phase 1Construct A Computer Design Research and Learning CenterGeneral - Construction (New)4/14/2021Posted830-030-162 Phase 1 4457
546-260-026 Phase 1Repair Privately-Owned Vehicle Parking LotGeneral- Remod & Rehab4/14/2021Posted546-260-026 Phase 1 4383
321-100-125 Phase 2Emergency Repair Administration Building Masonry - Main BuildingGeneral- Remod & Rehab4/14/2021Posted321-100-125 Phase 2 3960
104-210-006 Phase 1Restore Roof AssemblyGeneral- Remod & Rehab4/14/2021Posted104-210-006 Phase 1 4422
039-150-192 Phase 1Update HVAC ControlsHeating & Air Conditioning- Remod & Rehab4/14/2021Posted039-150-192 Phase 1 4393
102-304-035 Phase 1Repair Storm Damage/Replace Flight PensGeneral- Remod & Rehab4/14/2021Posted102-304-035 Phase 1 4280
120-270-042 Phase 1Replace Roofing SystemsGeneral- Remod & Rehab4/14/2021Posted120-270-042 Phase 1 4018
506-149-005 Phase 1Replace Floor/Repair Roof and CeilingGeneral- Remod & Rehab4/14/2021Posted506-149-005 Phase 1 4460
630-000-231 Phase 2PH-2/Salt Storage, Generator& Sewer Connection Jerseyville, Hamel and CarrolltonGeneral - Construction (New)4/14/2021Posted630-000-231 Phase 2 4445
039-060-055 Phase 1Repair GrandstandGeneral- Remod & Rehab3/31/2021Posted039-060-055 Phase 1 4419
810-078-027 Phase 1Replace Hot and Cold Water LoopsHeating & Air Conditioning- Remod & Rehab3/31/2021Posted810-078-027 Phase 1 4368
104-141-013 Phase 1Replace Roofing Systems on the Visitor's Center and 6 Other Site StructuresGeneral- Remod & Rehab3/31/2021Posted104-141-013 Phase 1 4442
321-190-051 Phase 1Install Emergency Address SystemElectrical- Remod & Rehab3/31/2021Posted321-190-051 Phase 1 4264
250-020-043 Phase 1Upgrade ElevatorsGeneral- Remod & Rehab3/31/2021Posted250-020-043 Phase 1 4252
630-000-231 Phase 2PH-2/Salt Storage, Generator& Sewer Connection Jerseyville, Hamel and CarrolltonPlumbing- Construction (New)3/31/2021Posted630-000-231 Phase 2 4446
810-028-027 Phase 1Repair Roads and ConcreteGeneral- Remod & Rehab3/31/2021Posted810-028-027 Phase 1 4385
040-020-071 Phase 1Replace Shingled Roofing SystemsGeneral- Remod & Rehab3/31/2021Posted040-020-071 Phase 1 4396
120-175-133 Phase 2PH - 2 / Replace Plumbing - South Cell HousePlumbing- Remod & Rehab3/31/2021Posted120-175-133 Phase 2 4427
321-055-137 Phase 1Replace Sections of Electrical Main LoopElectrical- Remod & Rehab3/31/2021Posted321-055-137 Phase 1 4431
630-000-231 Phase 2PH-2/Salt Storage, Generator& Sewer Connection Jerseyville, Hamel and CarrolltonElectrical- Construction (New)3/31/2021Posted630-000-231 Phase 2 4447
810-048-025 Phase 1Upgrade ElevatorsGeneral- Remod & Rehab3/31/2021Posted810-048-025 Phase 1 4358
810-096-032 Phase 1Upgrade Mechanical SystemsHeating & Air Conditioning- Remod & Rehab3/31/2021Posted810-096-032 Phase 1 4299
006-100-011 Phase 2Capital Building North Wing Renovation Early Construction PackageGeneral- Remod & Rehab3/17/2021Posted006-100-011 Phase 2 4426
025-010-030 Phase 1Renovate Building Interior and ExteriorGeneral- Remod & Rehab3/17/2021Posted025-010-030 Phase 1 4337
039-060-055 Phase 1Repair GrandstandElectrical- Remod & Rehab3/17/2021Posted039-060-055 Phase 1 4421
039-060-055 Phase 1Repair GrandstandPlumbing- Remod & Rehab3/17/2021Posted039-060-055 Phase 1 4420
040-050-023 Phase 1Replace Wander Guard and Fire Alarm SystemsElectrical- Remod & Rehab3/17/2021Posted040-050-023 Phase 1 4397
120-135-071 Phase 1Replace Lock Controls - X-HouseElectrical- Remod & Rehab3/17/2021Posted120-135-071 Phase 1 3940
321-100-126 Phase 1Upgrade Steam and Condensate LinesHeating & Air Conditioning- Remod & Rehab3/17/2021Posted321-100-126 Phase 1 4359
630-000-249 Phase 1Remodel Restrooms/Remove Septic System and Install Oil-Water SeparatorGeneral- Remod & Rehab3/17/2021Posted630-000-249 Phase 1 4293
810-036-022 Phase 1Replace Architectural PanelsGeneral- Remod & Rehab3/17/2021Posted810-036-022 Phase 1 4417
810-068-014 Phase 1Replace BoilersHeating & Air Conditioning- Remod & Rehab3/17/2021Posted810-068-014 Phase 1 4423
120-095-019 Phase 1Upgrade Touchscreens and Speakers in Housing UnitsElectrical- Remod & Rehab3/3/2021Posted120-095-019 Phase 1 4373
321-055-136 Phase 1Renovate DietaryHeating & Air Conditioning- Remod & Rehab3/3/2021Posted321-055-136 Phase 1 4050
321-055-136 Phase 1Renovate DietaryPlumbing- Remod & Rehab3/3/2021Posted321-055-136 Phase 1 4049
321-055-136 Phase 1Renovate DietaryElectrical- Remod & Rehab3/3/2021Posted321-055-136 Phase 1 4051
321-060-050 Phase 1Replace Walk-in Coolers and FreezersHeating & Air Conditioning- Remod & Rehab3/3/2021Posted321-060-050 Phase 1 4375
321-055-136 Phase 1Renovate DietaryAsbestos Work- Remod & Rehab3/3/2021Posted321-055-136 Phase 1 4054
025-010-030 Phase 1Renovate Building Interior and ExteriorVentilation- Remod & Rehab3/3/2021Posted025-010-030 Phase 1 4341
120-140-019 Phase 1Replace GeneratorsElectrical- Remod & Rehab3/3/2021Posted120-140-019 Phase 1 4241
321-055-136 Phase 1Renovate DietaryVentilation- Remod & Rehab3/3/2021Posted321-055-136 Phase 1 4052
321-055-136 Phase 1Renovate DietaryTemperature Controls Remod & Rehab3/3/2021Posted321-055-136 Phase 1 4053
810-056-028 Phase 1Replace Roofing SystemGeneral- Remod & Rehab2/17/2021Posted810-056-028 Phase 1 4297
039-150-191 Phase 1Repair/Resurface Roadways and SidewalksGeneral- Remod & Rehab2/17/2021Posted039-150-191 Phase 1 4312
120-135-072 Phase 1Replace Exterior Security Doors and FramesGeneral- Remod & Rehab2/17/2021Posted120-135-072 Phase 1 4287
250-100-010 Phase 1Repair Exterior - South BuildingGeneral- Remod & Rehab2/17/2021Posted250-100-010 Phase 1 4361
805-030-020 Phase 1Correct Water Infiltration - Academic BuildingGeneral- Remod & Rehab2/17/2021Posted805-030-020 Phase 1 4386
321-015-095 Phase 1Repair Interior and Exterior of Water TowerGeneral - Construction (New)2/17/2021Posted321-015-095 Phase 1 4367
810-036-023 Phase 1Repair BridgeGeneral- Remod & Rehab2/17/2021Posted810-036-023 Phase 1 4267
810-091-006 Phase 1Replace Parking LotGeneral- Remod & Rehab2/17/2021Posted810-091-006 Phase 1 4202
321-055-137 Phase 1Replace Sections of Electrical Main LoopElectrical- Remod & Rehab2/17/2021Posted321-055-137 Phase 1 4384
810-035-008 Phase 1Repair Parking Lots, Roads and SidewalksGeneral- Remod & Rehab2/3/2021Posted810-035-008 Phase 1 4211
630-000-238 Phase 2KankakeeGeneral - Construction (New)2/3/2021Posted630-000-238 Phase 2 4161
506-149-005 Phase 1Replace Floor/Repair Roof and CeilingGeneral- Remod & Rehab2/3/2021Posted506-149-005 Phase 1 4234
120-140-017 Phase 1Reconstruction of Access RoadGeneral- Remod & Rehab2/3/2021Posted120-140-017 Phase 1 4193
814-010-083 Phase 1Repair HVAC and Pool - Jacoby Dickens CenterGeneral- Remod & Rehab2/3/2021Posted814-010-083 Phase 1 4346
810-046-019 Phase 1Replace Roads and Parking LotsGeneral- Remod & Rehab2/3/2021Posted810-046-019 Phase 1 4371
810-062-027 Phase 1Install GeneratorsElectrical- Construction (New)2/3/2021Posted810-062-027 Phase 1 4311
816-010-040 Phase 1Replace Piping System and Renovate WashroomsGeneral- Remod & Rehab2/3/2021Posted816-010-040 Phase 1 4349
120-135-066 Phase 1Upgrade Laundry FacilityPlumbing- Remod & Rehab1/20/2021Posted120-135-066 Phase 1 4331
810-030-026 Phase 1Replace Exterior Doors & Upgrade SecurityGeneral- Remod & Rehab1/20/2021Posted810-030-026 Phase 1 4354
816-010-040 Phase 1Replace Piping System and Renovate WashroomsSprinklers (new )1/20/2021Posted816-010-040 Phase 1 4353
120-255-027 Phase 1Emergency Chiller ReplacementHeating & Air Conditioning- Remod & Rehab1/20/2021Posted120-255-027 Phase 1 4338
814-010-083 Phase 1Repair HVAC and Pool - Jacoby Dickens CenterPlumbing- Remod & Rehab1/20/2021Posted814-010-083 Phase 1 4344
815-010-081 Phase 1Repair Exterior Masonry, Foundation and StepsGeneral- Remod & Rehab1/20/2021Posted815-010-081 Phase 1 4304
120-040-025 Phase 1Rehabilitate Hot Water Distribution SystemGeneral- Remod & Rehab1/20/2021Posted120-040-025 Phase 1 4000
630-429-002 Phase 1Demolish and Construct Weigh StationGeneral - Construction (New)1/20/2021Posted630-429-002 Phase 1 4063
814-010-083 Phase 1Repair HVAC and Pool - Jacoby Dickens CenterHeating & Air Conditioning- Remod & Rehab1/20/2021Posted814-010-083 Phase 1 4348
814-010-083 Phase 1Repair HVAC and Pool - Jacoby Dickens CenterElectrical- Remod & Rehab1/20/2021Posted814-010-083 Phase 1 4347
102-332-002 Phase 1Improve DuPage River SpillwayGeneral- Remod & Rehab1/20/2021Posted102-332-002 Phase 1 4015
102-432-026 Phase 1Replace Fish Hatchery Power & Control SystemsElectrical- Remod & Rehab1/20/2021Posted102-432-026 Phase 1 4355
120-295-012 Phase 1Replace Locking and Control Systems and Upgrade Software and CPU'sElectrical- Remod & Rehab1/20/2021Posted120-295-012 Phase 1 4233
816-010-040 Phase 1Replace Piping System and Renovate WashroomsVentilation- Remod & Rehab1/20/2021Posted816-010-040 Phase 1 4351
816-010-040 Phase 1Replace Piping System and Renovate WashroomsPlumbing- Remod & Rehab1/20/2021Posted816-010-040 Phase 1 4350
816-010-040 Phase 1Replace Piping System and Renovate WashroomsElectrical- Remod & Rehab1/20/2021Posted816-010-040 Phase 1 4352
040-050-024 Phase 1Replace Original Generator, Chiller and Mechanical SystemsHeating & Air Conditioning- Remod & Rehab1/6/2021Posted040-050-024 Phase 1 4295
040-050-024 Phase 1Replace Original Generator, Chiller and Mechanical SystemsGeneral- Remod & Rehab1/6/2021Posted040-050-024 Phase 1 4294
120-040-025 Phase 1Rehabilitate Hot Water Distribution SystemHeating & Air Conditioning- Remod & Rehab1/6/2021Posted120-040-025 Phase 1 3970
321-110-067 Phase 1Rehabilitate Roads, Parking Lots, Sidewalks, Street and Walkway LightingGeneral- Remod & Rehab1/6/2021Posted321-110-067 Phase 1 4246
630-429-002 Phase 1Demolish and Construct Weigh StationElectrical- Construction (New)1/6/2021Posted630-429-002 Phase 1 4066
040-050-024 Phase 1Replace Original Generator, Chiller and Mechanical SystemsElectrical- Remod & Rehab1/6/2021Posted040-050-024 Phase 1 4296
630-000-238 Phase 1OttawaGeneral - Construction (New)1/6/2021Posted630-000-238 Phase 1 4235
814-010-084 Phase 1Upgrade Fire AlarmsElectrical- Remod & Rehab1/6/2021Posted814-010-084 Phase 1 4332
120-295-012 Phase 1Replace Locking and Control Systems and Upgrade Software and CPU'sGeneral- Remod & Rehab1/6/2021Posted120-295-012 Phase 1 4232
250-043-009 Phase 1Replace Chillers and Cooling TowerElectrical- Remod & Rehab12/9/2020Posted250-043-009 Phase 1 4323
102-713-004 Phase 1Connect to Local Water DistrictGeneral- Remod & Rehab12/9/2020Posted102-713-004 Phase 1 4197
291-085-001 Phase 1Replace Radio Tower and Upgrade HVAC at the Communication BuildingGeneral- Remod & Rehab12/9/2020Posted291-085-001 Phase 1 4225
120-000-068 Phase 1Provide Medical Office Space at Various Southern LocationsGeneral - Construction (New)12/9/2020Posted120-000-068 Phase 1 4298
120-095-019 Phase 1Upgrade Touchscreens and Speakers in Housing UnitsElectrical- Remod & Rehab12/9/2020Posted120-095-019 Phase 1 4262
321-055-135 Phase 1Replace BoilersHeating & Air Conditioning- Construction (New)12/9/2020Posted321-055-135 Phase 1 4303
810-064-020 Phase 1Replace ElevatorGeneral- Remod & Rehab12/9/2020Posted810-064-020 Phase 1 4215
102-401-018 Phase 1Repair/Replace Roofing SystemsGeneral- Remod & Rehab12/9/2020Posted102-401-018 Phase 1 4121
321-055-135 Phase 1Replace BoilersGeneral - Construction (New)11/5/2020Posted321-055-135 Phase 1 4301
815-010-077 Phase 1Upgrade HVAC/Plumbing Systems - Coleman Hall and Life Sciences BuildingGeneral- Remod & Rehab10/28/2020Posted815-010-077 Phase 1 4290
818-010-104 Phase 1System Water PipingGeneral- Remod & Rehab10/28/2020Posted818-010-104 Phase 1 4257
120-201-005 Phase 1Replace Locking and Control SystemsElectrical- Remod & Rehab10/28/2020Posted120-201-005 Phase 1 4277
546-325-079 Phase 1Renovate Building 2 for Soldier SupportGeneral- Remod & Rehab10/28/2020Posted546-325-079 Phase 1 4059
821-010-118 Phase 1Renovate Mechanical and Plumbing SystemsGeneral- Remod & Rehab10/28/2020Posted821-010-118 Phase 1 3964
630-000-235 Phase 1Building Renovation, New Wash BayGeneral- Remod & Rehab10/28/2020Posted630-000-235 Phase 1 4278
814-010-081 Phase 1Elevator RenovationGeneral- Remod & Rehab10/28/2020Posted814-010-081 Phase 1 4279
810-068-015 Phase 1Replace Parking LotsGeneral- Remod & Rehab10/28/2020Posted810-068-015 Phase 1 4285
624-060-038 Phase 1Renovate Parking StructureGeneral- Remod & Rehab10/28/2020Posted624-060-038 Phase 1 3988
120-075-067 Phase 1Install New Steam Absorber and Cooling TowerHeating & Air Conditioning- Remod & Rehab10/28/2020Posted120-075-067 Phase 1 4223
102-130-032 Phase 1Replace Roof on Site Office BuildingGeneral- Remod & Rehab10/28/2020Posted102-130-032 Phase 1 4212
102-312-051 Phase 1Improve Higbee Run DrainageGeneral- Remod & Rehab10/28/2020Posted102-312-051 Phase 1 4239
039-150-184 Phase 2PH-2 / Plan & Begin Coliseum RenovationGeneral- Remod & Rehab10/28/2020Posted039-150-184 Phase 2 4144
120-075-067 Phase 1Install New Steam Absorber and Cooling TowerElectrical- Remod & Rehab10/14/2020Posted120-075-067 Phase 1 4222
321-060-050 Phase 1Replace Walk-in Coolers and FreezersHeating & Air Conditioning- Remod & Rehab10/14/2020Posted321-060-050 Phase 1 4268
321-055-135 Phase 1Replace BoilersGeneral - Construction (New)10/14/2020Posted321-055-135 Phase 1 4046
040-050-023 Phase 1Replace Wander Guard and Fire Alarm SystemsElectrical- Remod & Rehab10/14/2020Posted040-050-023 Phase 1 4200
321-055-135 Phase 1Replace BoilersAsbestos Work- Remod & Rehab10/14/2020Posted321-055-135 Phase 1 4047
321-055-135 Phase 1Replace BoilersElectrical- Construction (New)10/14/2020Posted321-055-135 Phase 1 4045
250-100-008 Phase 1Upgrade HVAC SystemHeating & Air Conditioning- Remod & Rehab10/14/2020Posted250-100-008 Phase 1 4258
120-200-122 Phase 1Replace Roof, Repair Masonry & TuckpointingGeneral- Remod & Rehab10/14/2020Posted120-200-122 Phase 1 4164
250-043-009 Phase 1Replace Chillers and Cooling TowerHeating & Air Conditioning- Remod & Rehab10/14/2020Posted250-043-009 Phase 1 3949
546-325-079 Phase 1Renovate Building 2 for Soldier SupportElectrical- Remod & Rehab10/14/2020Posted546-325-079 Phase 1 4062
546-325-079 Phase 1Renovate Building 2 for Soldier SupportVentilation- Remod & Rehab10/14/2020Posted546-325-079 Phase 1 4061
630-000-243 Phase 1Various ImprovementsGeneral- Remod & Rehab10/14/2020Posted630-000-243 Phase 1 4242
321-155-015 Phase 1Replace Roofing SystemsGeneral- Remod & Rehab10/14/2020Posted321-155-015 Phase 1 4209
810-020-008 Phase 1Reglaze Curtain WallGeneral- Remod & Rehab10/14/2020Posted810-020-008 Phase 1 4269
818-010-104 Phase 1System Water PipingAsbestos Work- Remod & Rehab10/14/2020Posted818-010-104 Phase 1 4254
821-010-118 Phase 1Renovate Mechanical and Plumbing SystemsVentilation- Remod & Rehab10/14/2020Posted821-010-118 Phase 1 3965
821-010-118 Phase 1Renovate Mechanical and Plumbing SystemsAsbestos Work- Remod & Rehab10/14/2020Posted821-010-118 Phase 1 3969
818-010-104 Phase 1System Water PipingPlumbing- Remod & Rehab10/14/2020Posted818-010-104 Phase 1 4256
821-010-118 Phase 1Renovate Mechanical and Plumbing SystemsElectrical- Remod & Rehab10/14/2020Posted821-010-118 Phase 1 3967
818-010-104 Phase 1System Water PipingHeating & Air Conditioning- Remod & Rehab10/14/2020Posted818-010-104 Phase 1 4255
821-010-118 Phase 1Renovate Mechanical and Plumbing SystemsHeating & Air Conditioning- Remod & Rehab10/14/2020Posted821-010-118 Phase 1 3966
821-010-118 Phase 1Renovate Mechanical and Plumbing SystemsPlumbing- Remod & Rehab10/14/2020Posted821-010-118 Phase 1 3968
321-115-071 Phase 1Replace Absorber with an Air-Cooled ChillerHeating & Air Conditioning- Remod & Rehab9/30/2020Posted321-115-071 Phase 1 4093
039-150-189 Phase 1Repair Multipurpose Arena GrandstandGeneral- Remod & Rehab9/30/2020Posted039-150-189 Phase 1 3989
102-777-019 Phase 1Rehabilitate Parking and Access RoadGeneral- Remod & Rehab9/30/2020Posted102-777-019 Phase 1 3823
125-110-015 Phase 1Upgrade Perimeter Security Fencing & Install High Mast LightingElectrical- Remod & Rehab9/30/2020Posted125-110-015 Phase 1 3249
125-110-019 Phase 1Demolish BuildingsGeneral- Remod & Rehab9/30/2020Posted125-110-019 Phase 1 4231
250-043-009 Phase 1Replace Chillers and Cooling TowerElectrical- Remod & Rehab9/30/2020Posted250-043-009 Phase 1 3950
291-221-018 Phase 1Upgrade HVAC System & Install Generator - Training AcademyGeneral- Remod & Rehab9/30/2020Posted291-221-018 Phase 1 3987
321-015-096 Phase 1Replace Roofing SystemGeneral- Remod & Rehab9/30/2020Posted321-015-096 Phase 1 4247
321-155-015 Phase 1Replace Roofing SystemsVentilation- Remod & Rehab9/30/2020Posted321-155-015 Phase 1 4210
546-250-020 Phase 1Replace HVAC System and Plumbing and Interior RenovationGeneral- Remod & Rehab9/30/2020Posted546-250-020 Phase 1 4165
630-000-243 Phase 1Various ImprovementsPlumbing- Remod & Rehab9/30/2020Posted630-000-243 Phase 1 4244
825-020-151 Phase 2PH. 2- Upgrade Fire Alarm System - 3 BuildingsElectrical- Remod & Rehab9/30/2020Posted825-020-151 Phase 2 4196
805-030-020 Phase 1Correct Water Infiltration - Academic BuildingGeneral- Remod & Rehab9/30/2020Posted805-030-020 Phase 1 4245
546-282-003 Phase 2PH.2 Install Emergency GeneratorsElectrical- Construction (New)9/22/2020Posted546-282-003 Phase 2 4238
120-135-066 Phase 1Upgrade Laundry FacilityPlumbing- Remod & Rehab9/16/2020Posted120-135-066 Phase 1 3951
810-068-015 Phase 1Replace Parking LotsGeneral- Remod & Rehab9/16/2020Posted810-068-015 Phase 1 4125
120-200-124 Phase 1Repair Roof - East and West CellhouseGeneral- Remod & Rehab9/16/2020Posted120-200-124 Phase 1 4133
630-000-245 Phase 1Construct Salt Storage Buildings/Demolish Salt Storage BuildingGeneral - Construction (New)9/16/2020Posted630-000-245 Phase 1 4175
125-110-015 Phase 1Upgrade Perimeter Security Fencing & Install High Mast LightingGeneral- Remod & Rehab9/16/2020Posted125-110-015 Phase 1 3248
630-000-243 Phase 1Various ImprovementsGeneral- Remod & Rehab9/2/2020Posted630-000-243 Phase 1 4075
039-150-190 Phase 1Replace HVAC - Emmerson BuildingGeneral- Remod & Rehab9/2/2020Posted039-150-190 Phase 1 4205
102-312-054 Phase 1Replace Roofing SystemsGeneral- Remod & Rehab9/2/2020Posted102-312-054 Phase 1 4201
102-313-048 Phase 1Upgrade Water Supply SystemGeneral- Remod & Rehab9/2/2020Posted102-313-048 Phase 1 4155
120-290-007 Phase 1Replace Boiler BurnersHeating & Air Conditioning- Remod & Rehab9/2/2020Posted120-290-007 Phase 1 4116
321-190-050 Phase 1Replace Roofing SystemGeneral- Remod & Rehab9/2/2020Posted321-190-050 Phase 1 4195
810-022-006 Phase 1Replace FlooringGeneral- Remod & Rehab9/2/2020Posted810-022-006 Phase 1 4138
750-110-001 Phase 1Update Fire Alarm and Sprinkler SystemGeneral- Remod & Rehab9/2/2020Posted750-110-001 Phase 1 4055
810-054-022 Phase 1Repair Work and Accessibility ImprovementsGeneral- Remod & Rehab9/2/2020Posted810-054-022 Phase 1 4159
810-068-015 Phase 1Replace Parking LotsElectrical- Remod & Rehab9/2/2020Posted810-068-015 Phase 1 4124
810-094-027 Phase 1Replace FlooringGeneral- Remod & Rehab9/2/2020Posted810-094-027 Phase 1 4143
805-030-023 Phase 1Replace Heating and Cooling SystemsVentilation- Remod & Rehab9/2/2020Posted805-030-023 Phase 1 4207
546-280-013 Phase 1Repair HVAC System, Interior Renovation, Upgrade Electrical and Plumbing SystemsGeneral- Remod & Rehab8/26/2020Posted546-280-013 Phase 1 4206
546-110-012 Phase 1Repair Exterior and Interior of BuildingGeneral- Remod & Rehab8/26/2020Posted546-110-012 Phase 1 4192
630-000-247 Phase 1Replace Roofing SystemsGeneral- Remod & Rehab8/19/2020Posted630-000-247 Phase 1 4142
630-000-243 Phase 1Various ImprovementsPlumbing- Remod & Rehab8/19/2020Posted630-000-243 Phase 1 4076
102-313-048 Phase 1Upgrade Water Supply SystemElectrical- Remod & Rehab8/19/2020Posted102-313-048 Phase 1 4156
825-030-072 Phase 1Improve Water Treatment Plant Sand FilterPlumbing- Remod & Rehab8/19/2020Posted825-030-072 Phase 1 3828
810-078-025 Phase 1Replace Fire Doors and Air Handler UnitsGeneral- Remod & Rehab8/19/2020Posted810-078-025 Phase 1 4083
825-030-071 Phase 1Replace Digester LidPlumbing- Remod & Rehab8/19/2020Posted825-030-071 Phase 1 3857
120-241-004 Phase 1Replace Air ConditioningHeating & Air Conditioning- Remod & Rehab8/19/2020Posted120-241-004 Phase 1 4074
120-290-007 Phase 1Replace Boiler BurnersAsbestos Work- Remod & Rehab8/19/2020Posted120-290-007 Phase 1 4117
321-055-134 Phase 1Replace Roofing SystemsGeneral- Remod & Rehab8/19/2020Posted321-055-134 Phase 1 4139
810-030-025 Phase 1Replace ChillerHeating & Air Conditioning- Remod & Rehab8/19/2020Posted810-030-025 Phase 1 4056
630-000-243 Phase 1Various ImprovementsVentilation- Remod & Rehab8/19/2020Posted630-000-243 Phase 1 4077
630-332-004 Phase 1Replace Roofing SystemsGeneral- Remod & Rehab8/19/2020Posted630-332-004 Phase 1 4160
546-325-080 Phase 1Renovate AGO BuildingGeneral- Remod & Rehab8/19/2020Posted546-325-080 Phase 1 4173
810-078-025 Phase 1Replace Fire Doors and Air Handler UnitsVentilation- Remod & Rehab8/5/2020Posted810-078-025 Phase 1 4084
102-759-023 Phase 1Replace Roofing SystemsGeneral- Remod & Rehab8/5/2020Posted102-759-023 Phase 1 4102
630-000-234 Phase 1Repr/Rpac Overhead Door Headers, Replce Siding, Update Exhaust Sys & Wash BaysGeneral- Remod & Rehab8/5/2020Posted630-000-234 Phase 1 3899
810-030-025 Phase 1Replace ChillerElectrical- Remod & Rehab8/5/2020Posted810-030-025 Phase 1 4057
630-000-246 Phase 1Replace Roofing System/Construct Building AdditionGeneral- Remod & Rehab8/5/2020Posted630-000-246 Phase 1 4162
102-111-025 Phase 1Repair Dams and DredgingGeneral- Remod & Rehab7/22/2020Posted102-111-025 Phase 1 4183
120-135-074 Phase 1Emergency Assessment & Repair of Electrical Storm DamageElectrical- Remod & Rehab7/22/2020Posted120-135-074 Phase 1 4154
321-125-053 Phase 1Replace Roofing SystemsGeneral- Remod & Rehab7/22/2020Posted321-125-053 Phase 1 3972
321-110-066 Phase 1Replace Roofing SystemsGeneral- Remod & Rehab7/22/2020Posted321-110-066 Phase 1 4186
630-000-242 Phase 1Construct Vehicle and Equipment Storage BuildingsGeneral - Construction (New)7/22/2020Posted630-000-242 Phase 1 4113
817-010-080 Phase 1Replace Campus RoofsGeneral- Remod & Rehab7/22/2020Posted817-010-080 Phase 1 4185
810-004-009 Phase 1Replace Roofing System - Building 3General- Remod & Rehab7/22/2020Posted810-004-009 Phase 1 4082
810-004-008 Phase 1Replace Roof - Building 1General- Remod & Rehab7/22/2020Posted810-004-008 Phase 1 3979
546-355-021 Phase 1Construct Parking LotGeneral- Remod & Rehab7/22/2020Posted546-355-021 Phase 1 3981
815-010-077 Phase 1Upgrade HVAC/Plumbing Systems - Coleman Hall and Life Sciences BuildingGeneral- Remod & Rehab7/22/2020Posted815-010-077 Phase 1 3953
102-252-022 Phase 1Dredging and Beneficial ReuseGeneral- Remod & Rehab7/22/2020Posted102-252-022 Phase 1 4180
506-149-003 Phase 1Replace Security Camera SystemElectrical- Remod & Rehab7/22/2020Posted506-149-003 Phase 1 4012
630-000-234 Phase 1Repr/Rpac Overhead Door Headers, Replce Siding, Update Exhaust Sys & Wash BaysElectrical- Remod & Rehab7/22/2020Posted630-000-234 Phase 1 3897
630-000-234 Phase 1Repr/Rpac Overhead Door Headers, Replce Siding, Update Exhaust Sys & Wash BaysVentilation- Remod & Rehab7/22/2020Posted630-000-234 Phase 1 3898
291-240-011 Phase 1Replace Roofing SystemGeneral- Remod & Rehab7/22/2020Posted291-240-011 Phase 1 4182
630-000-242 Phase 1Construct Vehicle and Equipment Storage BuildingsVentilating- Construction (New)7/8/2020Posted630-000-242 Phase 1 4114
630-000-242 Phase 1Construct Vehicle and Equipment Storage BuildingsElectrical- Construction (New)7/8/2020Posted630-000-242 Phase 1 4115
120-008-017 Phase 1Replace Electronic Locking and Control Systems and Upgrade Software and CPU'sElectrical- Remod & Rehab7/8/2020Posted120-008-017 Phase 1 4011
321-125-053 Phase 1Replace Roofing SystemsVentilation- Remod & Rehab7/8/2020Posted321-125-053 Phase 1 4158
810-012-007 Phase 1Upgrade Campus Building Automation SystemHeating & Air Conditioning- Remod & Rehab7/8/2020Posted810-012-007 Phase 1 4157
810-086-015 Phase 1Update HVAC SystemVentilation- Remod & Rehab7/8/2020Posted810-086-015 Phase 1 4140
817-010-079 Phase 1Replace Electric Cable, Phase 1Electrical- Remod & Rehab7/8/2020Posted817-010-079 Phase 1 3996
102-311-098 Phase 1Replace Roofing System and Repair Interior at Illinois Beach State ParkGeneral- Remod & Rehab6/24/2020Posted102-311-098 Phase 1 4152
102-508-045 Phase 1Construct Connecting Trails, Parking Lot and Site ImprovementsGeneral - Construction (New)6/24/2020Posted102-508-045 Phase 1 3909
321-010-101 Phase 1Replace Roofing SystemGeneral- Remod & Rehab6/24/2020Posted321-010-101 Phase 1 3942
810-074-021 Phase 1Reconstruct CourtyardGeneral- Remod & Rehab6/24/2020Posted810-074-021 Phase 1 4153
291-221-019 Phase 1Upgrade Parking Lots, Pavements and Resurface Running TrackGeneral- Remod & Rehab6/10/2020Posted291-221-019 Phase 1 4041
546-282-003 Phase 2PH.2 Install Emergency GeneratorsElectrical- Construction (New)6/10/2020Posted546-282-003 Phase 2 3934
102-508-046 Phase 1Replace Roofing SystemsGeneral- Remod & Rehab6/3/2020Posted102-508-046 Phase 1 3947
546-175-014 Phase 1Replace Maintenance Shop DoorGeneral- Remod & Rehab6/3/2020Posted546-175-014 Phase 1 4092
546-260-025 Phase 1Replace Oil Water SeparatorsGeneral- Remod & Rehab6/3/2020Posted546-260-025 Phase 1 4141
630-000-235 Phase 1Building Renovation, New Wash BayGeneral- Remod & Rehab6/3/2020Posted630-000-235 Phase 1 4134
102-704-050 Phase 1Replace Cox BridgeGeneral- Remod & Rehab5/27/2020Posted102-704-050 Phase 1 4112
102-327-025 Phase 1Replace Boat Ramps and Improve ParkingGeneral- Remod & Rehab5/13/2020Posted102-327-025 Phase 1 4110
102-523-011 Phase 1Replace Roofing SystemsGeneral- Remod & Rehab5/13/2020Posted102-523-011 Phase 1 4119
120-075-066 Phase 1Replace Roofing SystemsGeneral- Remod & Rehab5/13/2020Posted120-075-066 Phase 1 4108
546-080-010 Phase 3Upgrade PlumbingAsbestos Work- Remod & Rehab5/13/2020Posted546-080-010 Phase 3 4111
006-100-011 Phase 1Capital Building North Wing Renovation  Asbestos AbatementAsbestos Work- Remod & Rehab5/6/2020Posted006-100-011 Phase 1 4118
120-075-066 Phase 1Replace Roofing SystemsVentilation- Remod & Rehab5/6/2020Posted120-075-066 Phase 1 4109
120-230-133 Phase 1Replace HVAC - Health Care UnitHeating & Air Conditioning- Remod & Rehab5/6/2020Posted120-230-133 Phase 1 4107
125-110-020 Phase 1Replace Roofing SystemsGeneral- Remod & Rehab5/6/2020Posted125-110-020 Phase 1 4106
250-020-041 Phase 1Repair Exterior FacadeGeneral- Remod & Rehab5/6/2020Posted250-020-041 Phase 1 4103
630-000-241 Phase 1Various ImprovementsGeneral- Remod & Rehab5/6/2020Posted630-000-241 Phase 1 4098
810-056-024 Phase 1Construct Student Services/Adult Education Center Waukegan CampusGeneral - Construction (New)5/6/2020Posted810-056-024 Phase 1 4120
810-076-016 Phase 1Upgrade Campus LightingElectrical- Remod & Rehab5/6/2020Posted810-076-016 Phase 1 4105
810-080-018 Phase 1Repair Parking LotGeneral- Remod & Rehab5/6/2020Posted810-080-018 Phase 1 4104
816-010-041 Phase 1Main Building Roof Replacement (Buildings A, B and Performing Arts)General- Remod & Rehab5/6/2020Posted816-010-041 Phase 1 4095
102-222-024 Phase 1Replace Roofing SystemsGeneral- Remod & Rehab4/29/2020Posted102-222-024 Phase 1 4097
120-230-128 Phase 4Replace Roofing SystemsGeneral- Remod & Rehab4/29/2020Posted120-230-128 Phase 4 4100
630-000-241 Phase 1Various ImprovementsElectrical- Remod & Rehab4/29/2020Posted630-000-241 Phase 1 4099
805-030-020 Phase 1Correct Water Infiltration - Academic BuildingGeneral- Remod & Rehab4/29/2020Posted805-030-020 Phase 1 4101
816-010-041 Phase 1Main Building Roof Replacement (Buildings A, B and Performing Arts)Plumbing- Remod & Rehab4/29/2020Posted816-010-041 Phase 1 4096
814-010-082 Phase 2Installation of New Boilers - Chicago State UniversityHeating & Air Conditioning- Remod & Rehab3/12/2020Posted814-010-082 Phase 2 3866
805-030-023 Phase 1Replace Heating and Cooling SystemsVentilation- Remod & Rehab3/11/2020Posted805-030-023 Phase 1 4001
120-255-026 Phase 1Replace Coolers and FreezersGeneral- Remod & Rehab3/5/2020Posted120-255-026 Phase 1 3994
546-035-006 Phase 1Replace Roofing SystemGeneral- Remod & Rehab3/5/2020Posted546-035-006 Phase 1 3932
546-080-015 Phase 1Replace RoofGeneral- Remod & Rehab3/5/2020Posted546-080-015 Phase 1 3943
546-370-014 Phase 1Replace Armory RoofGeneral- Remod & Rehab3/5/2020Posted546-370-014 Phase 1 3941
810-035-007 Phase 1Resurface Parking LotsGeneral- Remod & Rehab3/5/2020Posted810-035-007 Phase 1 3995
810-044-014 Phase 1Repair RoofGeneral- Remod & Rehab3/5/2020Posted810-044-014 Phase 1 3986
814-010-082 Phase 2Installation of New Boilers - Chicago State UniversityElectrical- Remod & Rehab3/5/2020Posted814-010-082 Phase 2 3867
816-010-041 Phase 1Main Building Roof Replacement (Buildings A, B and Performing Arts)Ventilation- Remod & Rehab3/5/2020Posted816-010-041 Phase 1 3870
816-010-041 Phase 1Main Building Roof Replacement (Buildings A, B and Performing Arts)Electrical- Remod & Rehab3/5/2020Posted816-010-041 Phase 1 3871
546-080-010 Phase 3Upgrade PlumbingGeneral- Remod & Rehab3/4/2020Posted546-080-010 Phase 3 3983
321-055-133 Phase 1Replace Absorption ChillerHeating & Air Conditioning- Remod & Rehab3/3/2020Posted321-055-133 Phase 1 3946
040-020-066 Phase 1Replace Roofing SystemsGeneral- Remod & Rehab2/27/2020Posted040-020-066 Phase 1 3911
321-035-064 Phase 1Replacement Of Walk-In FreezerGeneral- Remod & Rehab2/27/2020Posted321-035-064 Phase 1 3860
321-055-133 Phase 1Replace Absorption ChillerElectrical- Remod & Rehab2/26/2020Posted321-055-133 Phase 1 3945
546-080-010 Phase 3Upgrade PlumbingPlumbing- Remod & Rehab2/26/2020Posted546-080-010 Phase 3 3984
102-419-077 Phase 1Upgrade Lodge Attic Ventilation & Exhaust Air SystemsGeneral- Remod & Rehab2/20/2020Posted102-419-077 Phase 1 3740
102-522-028 Phase 1Replace Roofing SystemsGeneral- Remod & Rehab2/20/2020Posted102-522-028 Phase 1 3952
104-600-017 Phase 1Exterior Repairs/Restore DrumGeneral- Remod & Rehab2/20/2020Posted104-600-017 Phase 1 3962
120-175-139 Phase 1Tuckpoint & Repair Exterior Walls - DietaryGeneral- Remod & Rehab2/20/2020Posted120-175-139 Phase 1 3920
102-419-077 Phase 1Upgrade Lodge Attic Ventilation & Exhaust Air SystemsVentilation- Remod & Rehab2/13/2020Posted102-419-077 Phase 1 3741
120-260-034 Phase 1Replace Roofing SystemsGeneral- Remod & Rehab2/13/2020Posted120-260-034 Phase 1 3901
321-160-024 Phase 1Replace Roofing SystemsGeneral- Remod & Rehab2/13/2020Posted321-160-024 Phase 1 3921
120-050-053 Phase 1Replace Roofing SystemsGeneral- Remod & Rehab2/6/2020Posted120-050-053 Phase 1 3884
810-050-021 Phase 1Upgrade FacadeGeneral- Remod & Rehab2/6/2020Posted810-050-021 Phase 1 3930
810-014-003 Phase 1Replace RoofGeneral- Remod & Rehab2/5/2020Posted810-014-003 Phase 1 3948
102-311-097 Phase 1Utility RelocationGeneral- Remod & Rehab2/4/2020Posted102-311-097 Phase 1 3937
039-150-187 Phase 2Roofs - Two Buildings Expo IllinoisGeneral- Remod & Rehab1/30/2020Posted039-150-187 Phase 2 3935
321-010-100 Phase 1Replace Roof - Dietary BuildingGeneral- Remod & Rehab1/30/2020Posted321-010-100 Phase 1 3856
810-074-020 Phase 1Renovate Educational FacilityGeneral- Remod & Rehab1/30/2020Posted810-074-020 Phase 1 3889
822-010-130 Phase 2HVAC UpgradesHeating & Air Conditioning- Remod & Rehab1/28/2020Posted822-010-130 Phase 2 3925
321-055-126 Phase 1Modifications To Meet Accessible Parking RequirementsGeneral- Remod & Rehab1/23/2020Posted321-055-126 Phase 1 3796
102-728-024 Phase 1Repair & Rehabilitate FortGeneral- Remod & Rehab1/9/2020Posted102-728-024 Phase 1 3903
630-000-239 Phase 1Various ImprovementsGeneral- Remod & Rehab1/9/2020Posted630-000-239 Phase 1 3829
810-034-012 Phase 1Replace CarpetGeneral- Remod & Rehab1/9/2020Posted810-034-012 Phase 1 3872
040-060-018 Phase 1Replace Nurse Call SystemElectrical- Remod & Rehab12/12/2019Posted040-060-018 Phase 1 3893
102-419-078 Phase 1Rehabilitate Campground ElectricalGeneral- Remod & Rehab12/12/2019Posted102-419-078 Phase 1 3852
250-189-015 Phase 1Replace Emergency GeneratorElectrical- Remod & Rehab12/12/2019Posted250-189-015 Phase 1 3915
546-345-014 Phase 1Upgrade Plumbing System and Renovate KitchenGeneral- Remod & Rehab12/12/2019Posted546-345-014 Phase 1 3917
654-167-002 Phase 2Upgrade two small LaboratoriesGeneral- Remod & Rehab12/12/2019Posted654-167-002 Phase 2 3660
810-091-005 Phase 1Replace RoofGeneral- Remod & Rehab12/12/2019Posted810-091-005 Phase 1 3854
810-050-021 Phase 1Upgrade FacadeGeneral- Remod & Rehab12/11/2019Posted810-050-021 Phase 1 3919
102-419-078 Phase 1Rehabilitate Campground ElectricalElectrical- Remod & Rehab12/5/2019Posted102-419-078 Phase 1 3853
821-010-119 Phase 1Replace Roofing SystemsGeneral - Construction (New)12/5/2019Posted821-010-119 Phase 1 3859
630-442-055 Phase 1Replace Chilled Water System, Remove and Replace ChillerGeneral- Remod & Rehab11/21/2019Posted630-442-055 Phase 1 3877
120-295-013 Phase 1Emergency Chiller ReplacementHeating & Air Conditioning- Remod & Rehab11/14/2019Posted120-295-013 Phase 1 3895
630-437-038 Phase 1Renovate Building and Construct Building AdditionGeneral- Remod & Rehab11/14/2019Posted630-437-038 Phase 1 3902
810-068-014 Phase 1Replace BoilersHeating & Air Conditioning- Remod & Rehab11/14/2019Posted810-068-014 Phase 1 3900
040-010-118 Phase 1Abate Asbestos for DemolitionAsbestos Work- Remod & Rehab11/7/2019Posted040-010-118 Phase 1 3888
630-332-003 Phase 1Construct Storage BuildingGeneral - Construction (New)11/7/2019Posted630-332-003 Phase 1 3907
546-070-027 Phase 1Exterior and Interior RenovationsGeneral- Remod & Rehab11/5/2019Posted546-070-027 Phase 1 3874
630-000-208 Phase 1Various Improvements - District 8General- Remod & Rehab10/31/2019Posted630-000-208 Phase 1 3861
810-032-027 Phase 1Repair Infrastructure TunnelHeating & Air Conditioning- Construction (New)10/30/2019Posted810-032-027 Phase 1 3848
102-311-097 Phase 1Utility RelocationGeneral- Remod & Rehab10/29/2019Posted102-311-097 Phase 1 3880
546-070-027 Phase 1Exterior and Interior RenovationsPlumbing- Remod & Rehab10/29/2019Posted546-070-027 Phase 1 3875
546-070-027 Phase 1Exterior and Interior RenovationsElectrical- Remod & Rehab10/29/2019Posted546-070-027 Phase 1 3876
810-046-018 Phase 1Construct Agriculture Program Equipment Storage BuildingGeneral - Construction (New)10/10/2019Posted810-046-018 Phase 1 3819
810-046-018 Phase 1Construct Agriculture Program Equipment Storage BuildingElectrical- Construction (New)10/3/2019Posted810-046-018 Phase 1 3820
810-024-040 Phase 1Replace Heating UnitsVentilation- Remod & Rehab9/26/2019Posted810-024-040 Phase 1 3797
810-024-040 Phase 1Replace Heating UnitsElectrical- Remod & Rehab9/19/2019Posted810-024-040 Phase 1 3798
630-000-240 Phase 1Various ImprovementsGeneral- Remod & Rehab9/12/2019Posted630-000-240 Phase 1 3708
810-026-014 Phase 1Replace HandrailsGeneral- Remod & Rehab9/12/2019Posted810-026-014 Phase 1 3750
039-060-054 Phase 1Repair/Replace DuctworkVentilation- Remod & Rehab9/5/2019Posted039-060-054 Phase 1 3833
125-003-004 Phase 1Replace Roofing SystemsGeneral- Remod & Rehab8/29/2019Posted125-003-004 Phase 1 3841
546-385-037 Phase 1Construct Automated Record Fire RangeGeneral - Construction (New)8/29/2019Posted546-385-037 Phase 1 3822
120-230-128 Phase 4Replace Roofing SystemsGeneral- Remod & Rehab8/27/2019Posted120-230-128 Phase 4 3845
546-310-009 Phase 1Upgrade Electrical and Lighting SystemsElectrical- Remod & Rehab8/27/2019Posted546-310-009 Phase 1 3835
814-010-082 Phase 1Replace Inoperative BoilersHeating & Air Conditioning- Construction (New)8/27/2019Posted814-010-082 Phase 1 3850
102-519-013 Phase 1Replace Sewer LinesGeneral- Remod & Rehab8/22/2019Posted102-519-013 Phase 1 3842
546-385-038 Phase 1Replace Hot Water Holding TanksPlumbing- Remod & Rehab8/22/2019Posted546-385-038 Phase 1 3821
546-235-021 Phase 1Replace Roof and Resurface Parking LotGeneral - Construction (New)8/20/2019Posted546-235-021 Phase 1 3747
102-311-096 Phase 1Replace Beach ConcessionElectrical- Construction (New)8/15/2019Posted102-311-096 Phase 1 3840
546-115-035 Phase 1Replace Roof, Provide Exterior Repairs and Renovate KitchenGeneral- Remod & Rehab8/15/2019Posted546-115-035 Phase 1 3811
546-385-039 Phase 1Construct Addition and Renovate BuildingGeneral- Remod & Rehab8/15/2019Posted546-385-039 Phase 1 3815
120-075-062 Phase 1Repair/Replace Water HeatersPlumbing- Remod & Rehab8/8/2019Posted120-075-062 Phase 1 3830
546-010-003 Phase 1Emergency Storm Damage RepairsGeneral- Remod & Rehab8/8/2019Posted546-010-003 Phase 1 3838
546-250-019 Phase 1Replace Roof, Provide Exterior Repairs and Renovate KitchenGeneral- Remod & Rehab8/8/2019Posted546-250-019 Phase 1 3834
546-385-039 Phase 1Construct Addition and Renovate BuildingElectrical- Remod & Rehab8/8/2019Posted546-385-039 Phase 1 3817
546-385-039 Phase 1Construct Addition and Renovate BuildingVentilation- Remod & Rehab8/8/2019Posted546-385-039 Phase 1 3816
630-000-237 Phase 1Replace Roof, Demolish and Construct BuildingGeneral - Construction (New)8/8/2019Posted630-000-237 Phase 1 3832
630-600-003 Phase 1Demolish and Construct Salt Storage BuildingGeneral - Construction (New)8/8/2019Posted630-600-003 Phase 1 3809
630-000-236 Phase 1Install Oil Water SeparatorsPlumbing- Construction (New)8/1/2019Posted630-000-236 Phase 1 3760
120-135-063 Phase 1Replace WindowsAsbestos Work- Remod & Rehab7/25/2019Posted120-135-063 Phase 1 3814
120-135-063 Phase 1Replace WindowsGeneral- Remod & Rehab7/25/2019Posted120-135-063 Phase 1 3813
818-010-103 Phase 1PH. 1 - Roof Replacement - Currans & Heating Plant AnnexGeneral- Remod & Rehab7/25/2019Posted818-010-103 Phase 1 3758
830-030-157 Phase 1Exterior Repairs/Window Replacement - College of Med and Clinic SciencesGeneral- Remod & Rehab7/24/2019Posted830-030-157 Phase 1 3827

​ANY BIDDER THAT FAILS TO MEET BEP OR VBP GOALS SHALL BE NOTIFIED AND AFFORDED A PERIOD NOT TO EXCEED TEN (10) CALENDAR DAYS AFTER THE BID OPENING TO CURE THAT DEFICIENCY OR SUBMIT "GOOD FAITH EFFORTS" DOCUMENTATION TO CDB. FAILURE TO CURE A DEFICIENCY OR SUBMIT "GOOD FAITH EFFORTS" WITHIN THE 10 DAY CURE PERIOD WILL RESULT IN REJECTION OF THE BID.